Tropical Cyclones
[Index]
Main Index Home Page Stock Weather Photos Extreme Storms Discussion Storm News and Storm Chasing Reports Tropical Cyclones / Hurricanes / Typhoons Weather Data and Links Wild Fires / Bushfires Weather Observation Techniques Weather Picture Catalogue Tornado Pictures and Reports Stock Video Footage and DVDs for sale
Season 2011-2012 Tropical Cyclone HEIDI Track Map
Season 2011-2012 Summaries: [BoM-AU] [JTWC-AU] [JTWC-SIO] [JTWC-SPAC] [JTWC-SH]
<<- Previous TC | BoM 2011-2012 Season | Next TC ->>

click for intensity scale information  Lat/long Grid: Show Hide

 Date Labels: Show Hide

Bureau of Meteorology Tropical Cyclone Data

Name: HEIDI
Number: 955 / 201112_07

09 Jan 2012 00:00 UTC to 13 Jan 2012 08:00 UTC

    date/time    lat    long    hPa   cat  kts
2012-01-09 00   12.0   118.0                            
2012-01-09 06   12.1   117.8   1004         25          
2012-01-09 10   12.2   120.0   1004         20          
2012-01-09 12   12.3   119.9   1004         20          
2012-01-09 13   12.4   119.8                20          
2012-01-09 18   13.3   119.6   1002         25          
2012-01-10 00   14.5   119.5   1002         25          
2012-01-10 06   15.5   119.5   1000         30          
2012-01-10 12   16.6   119.5    995    1    40          
2012-01-10 15   17.0   119.4    993    1    45          
2012-01-10 18   17.6   119.4    990    1    50          
2012-01-11 00   18.3   119.4    984    2    55          
2012-01-11 03   18.8   119.1    984    2    55          
2012-01-11 06   19.1   118.9    980    2    55          
2012-01-11 12   19.5   118.9    972    2    65          
2012-01-11 13   19.6   118.9    968    3    70          
2012-01-11 14   19.8   118.9    968    3    70          
2012-01-11 15   19.8   118.8    968    3    70          
2012-01-11 16   19.9   118.8    964    3    75          
2012-01-11 17   20.0   118.8    964    3    75          
2012-01-11 18   20.1   118.8    960    3    80          
2012-01-11 20   20.3   118.7    960    3    80          
2012-01-11 21   20.4   118.7    964    3    75          
2012-01-12 00   20.7   118.6    974    2    65          
2012-01-12 03   21.1   118.4    980    2    55          
2012-01-12 06   21.4   118.3    982    2    50          
2012-01-12 09   21.8   118.2    990    1    40          
2012-01-12 12   22.1   118.2    995    1    35          
2012-01-12 15   22.6   118.2    998         30          
2012-01-12 18   23.1   118.0   1000         30          
2012-01-13 00   24.2   117.7   1000         25          
2012-01-13 06   25.0   117.7   1000         25          
2012-01-13 08   25.2   117.5    998         25          
Winds are 10-min average.

Tropical cyclone tracks developed by Michael Bath using data from the Bureau of Meteorology and Google Maps.


[Australian Severe Weather index] [Copyright Notice] [Email Contacts] [Search This Site] [Privacy Policy]
Document: tropical_cyclone_heidi.htm Updated: 29 June 2017